Time;durP1;ratioP1;P1;durP2;ratioP2;P2;SDS_P1;SDS_P2;PMS_P1;PMS_P2;Temp;Humidity;BMP_temperature;BMP_pressure;BME280_temperature;BME280_humidity;BME280_pressure;Samples;Min_cycle;Max_cycle;Signal;HPM_P1;HPM_P2
2023/04/16 00:00:10;;;;;;;15.97;13.80;;;;;;;13.03;64.53;98641.53;6961616;28;20233;-86
2023/04/16 00:03:32;;;;;;;17.23;13.97;;;;;;;12.43;64.73;98580.09;6975495;28;20695;-86
2023/04/16 00:06:53;;;;;;;17.60;13.93;;;;;;;13.13;64.42;98629.16;6997188;28;20233;-86
2023/04/16 00:10:15;;;;;;;18.23;14.73;;;;;;;12.54;64.28;98553.19;7009090;28;20292;-86
2023/04/16 00:13:37;;;;;;;15.87;14.17;;;;;;;13.12;63.75;98630.22;7030605;28;20210;-87
2023/04/16 00:17:00;;;;;;;16.93;14.70;;;;;;;12.68;63.80;98570.09;7033743;28;20202;-87
2023/04/16 00:20:21;;;;;;;16.83;14.83;;;;;;;13.28;63.68;98634.19;7033662;28;20209;-87
2023/04/16 00:23:43;;;;;;;19.93;16.67;;;;;;;12.75;63.21;98552.72;7032455;28;20275;-86
2023/04/16 00:27:08;;;;;;;18.03;15.33;;;;;;;13.08;64.13;98642.53;7011835;28;20186;-86
2023/04/16 00:30:29;;;;;;;17.57;14.70;;;;;;;13.18;63.37;98656.38;7014900;28;20190;-86
2023/04/16 00:33:53;;;;;;;20.67;16.40;;;;;;;12.81;64.27;98610.53;7005674;28;20226;-86
2023/04/16 00:37:14;;;;;;;18.03;15.27;;;;;;;13.12;64.11;98640.22;7006770;28;20293;-86
2023/04/16 00:40:36;;;;;;;15.60;14.00;;;;;;;12.77;64.11;98610.16;7006174;28;20201;-87
2023/04/16 00:43:57;;;;;;;21.03;16.67;;;;;;;12.89;64.44;98612.94;7005506;28;20303;-86
2023/04/16 00:47:19;;;;;;;19.27;15.50;;;;;;;12.81;64.45;98634.91;6994796;28;20288;-86
2023/04/16 00:50:42;;;;;;;18.90;14.90;;;;;;;12.66;64.26;98624.41;6979484;28;20656;-87
2023/04/16 00:54:04;;;;;;;18.43;15.80;;;;;;;12.76;64.62;98630.13;6977382;28;20220;-86
2023/04/16 00:57:27;;;;;;;20.00;15.73;;;;;;;12.63;64.15;98572.66;6978222;28;20700;-86
2023/04/16 01:00:49;;;;;;;18.47;14.50;;;;;;;13.17;64.32;98662.81;6978309;28;20195;-86
2023/04/16 01:04:11;;;;;;;17.63;15.37;;;;;;;13.16;63.99;98655.75;6980300;28;20237;-86
2023/04/16 01:07:34;;;;;;;17.10;15.30;;;;;;;12.70;64.61;98633.72;7001931;28;20234;-86
2023/04/16 01:10:58;;;;;;;17.70;15.10;;;;;;;13.08;64.06;98672.31;6994961;28;20202;-87
2023/04/16 01:14:20;;;;;;;16.20;14.07;;;;;;;12.74;64.07;98593.56;7004991;28;20641;-86
2023/04/16 01:17:41;;;;;;;18.30;14.90;;;;;;;13.14;64.12;98668.72;6979263;28;20289;-86
2023/04/16 01:21:06;;;;;;;18.80;15.10;;;;;;;13.04;64.29;98652.16;6977347;28;20253;-87
2023/04/16 01:24:28;;;;;;;18.97;14.47;;;;;;;12.77;63.98;98595.81;6977208;28;20215;-87
2023/04/16 01:27:50;;;;;;;17.30;14.67;;;;;;;12.63;64.43;98630.25;6995088;28;20254;-87
2023/04/16 01:31:11;;;;;;;15.00;12.60;;;;;;;12.97;63.86;98627.03;7002194;28;20759;-87
2023/04/16 01:34:35;;;;;;;19.53;13.73;;;;;;;12.96;63.91;98606.44;7003913;28;20293;-86
2023/04/16 01:38:06;;;;;;;16.60;13.70;;;;;;;13.00;64.80;98666.38;6989655;28;20230;-86
2023/04/16 01:41:28;;;;;;;15.40;13.13;;;;;;;13.28;64.34;98674.81;6984985;28;20275;-87
2023/04/16 01:44:49;;;;;;;16.30;13.43;;;;;;;13.22;63.74;98657.56;7003839;28;20230;-87
2023/04/16 01:48:11;;;;;;;15.90;13.53;;;;;;;13.11;63.88;98662.91;7004367;28;20252;-87
2023/04/16 01:51:33;;;;;;;14.63;12.60;;;;;;;12.37;65.05;98616.16;7004280;28;20332;-87
2023/04/16 01:54:56;;;;;;;14.93;12.20;;;;;;;12.85;65.01;98688.31;7003244;28;20309;-86
2023/04/16 01:58:17;;;;;;;13.73;12.10;;;;;;;12.60;64.65;98628.00;7004220;28;20206;-86
2023/04/16 02:01:43;;;;;;;12.97;11.53;;;;;;;12.89;64.51;98658.94;6991702;28;20220;-86
2023/04/16 02:05:05;;;;;;;13.40;11.87;;;;;;;12.87;64.55;98656.47;6978188;28;20231;-85
2023/04/16 02:08:26;;;;;;;13.00;11.60;;;;;;;12.76;64.67;98683.44;6975897;28;20225;-86
2023/04/16 02:11:49;;;;;;;12.77;11.47;;;;;;;12.56;64.54;98615.97;7001841;28;20260;-87
2023/04/16 02:15:11;;;;;;;13.40;11.80;;;;;;;12.62;64.63;98638.63;7003402;28;20284;-86
2023/04/16 02:18:33;;;;;;;13.60;11.27;;;;;;;12.86;65.13;98683.75;6988877;28;20265;-86
2023/04/16 02:21:55;;;;;;;13.17;11.60;;;;;;;12.42;64.88;98622.56;6975378;28;20203;-87
2023/04/16 02:25:16;;;;;;;12.83;10.83;;;;;;;12.65;64.53;98630.03;6975441;28;20250;-87
2023/04/16 02:28:40;;;;;;;13.07;11.10;;;;;;;13.05;64.22;98674.66;6975528;28;20288;-87
2023/04/16 02:32:02;;;;;;;12.73;10.70;;;;;;;12.56;64.41;98632.19;6987314;28;20240;-87
2023/04/16 02:35:23;;;;;;;12.77;10.53;;;;;;;12.85;64.64;98688.31;7002890;28;20355;-87
2023/04/16 02:38:45;;;;;;;12.80;10.50;;;;;;;12.53;65.17;98670.53;7003034;28;20209;-86
2023/04/16 02:42:06;;;;;;;13.57;10.63;;;;;;;12.87;64.56;98677.28;7001970;28;20210;-87
2023/04/16 02:45:30;;;;;;;13.90;11.20;;;;;;;12.26;64.38;98570.91;6989710;28;20203;-87
2023/04/16 02:48:52;;;;;;;12.33;10.80;;;;;;;12.89;64.74;98694.13;6975344;28;20313;-87
2023/04/16 02:52:13;;;;;;;14.17;11.47;;;;;;;13.07;64.54;98686.91;6974692;28;20797;-87
2023/04/16 02:55:36;;;;;;;13.37;11.03;;;;;;;12.05;65.33;98588.34;6975083;28;20680;-87
2023/04/16 02:58:58;;;;;;;14.33;11.70;;;;;;;12.10;65.73;98631.75;6974857;28;20206;-86
2023/04/16 03:02:20;;;;;;;12.53;11.23;;;;;;;12.51;65.46;98671.78;6975382;28;20290;-86
2023/04/16 03:05:43;;;;;;;14.10;12.60;;;;;;;12.87;64.68;98661.06;6984498;28;20226;-86
2023/04/16 03:09:04;;;;;;;14.87;12.30;;;;;;;12.57;64.21;98630.34;6989659;28;20351;-85
2023/04/16 03:12:26;;;;;;;17.17;12.70;;;;;;;12.97;64.81;98700.09;6995120;28;20255;-87
2023/04/16 03:15:50;;;;;;;17.93;13.07;;;;;;;12.51;65.43;98663.69;7001975;28;20284;-86
2023/04/16 03:19:13;;;;;;;13.93;12.30;;;;;;;12.63;64.56;98667.31;7001137;28;20340;-87
2023/04/16 03:22:35;;;;;;;15.83;12.23;;;;;;;12.35;64.87;98656.94;7005889;28;20298;-87
2023/04/16 03:25:56;;;;;;;16.37;13.53;;;;;;;12.44;64.88;98630.44;6982119;28;20576;-87
2023/04/16 03:29:18;;;;;;;16.23;12.60;;;;;;;13.13;64.24;98674.34;6988809;28;20318;-87
2023/04/16 03:32:40;;;;;;;17.80;13.90;;;;;;;12.49;64.09;98612.50;6989227;28;20373;-87
2023/04/16 03:36:03;;;;;;;15.33;13.43;;;;;;;13.08;63.85;98715.63;6980016;28;20888;-87
2023/04/16 03:39:25;;;;;;;15.33;13.73;;;;;;;12.54;64.63;98669.47;6982312;28;20227;-87
2023/04/16 03:42:46;;;;;;;15.90;13.77;;;;;;;13.19;64.41;98714.06;6979878;28;20225;-86
2023/04/16 03:46:08;;;;;;;15.97;12.50;;;;;;;13.05;64.03;98704.41;6980613;28;20287;-87
2023/04/16 03:49:29;;;;;;;20.47;14.77;;;;;;;12.92;64.06;98685.56;7000365;28;20301;-87
2023/04/16 03:52:52;;;;;;;18.30;14.37;;;;;;;13.13;63.43;98683.31;6991159;28;20308;-87
2023/04/16 03:56:14;;;;;;;17.13;13.30;;;;;;;12.69;64.33;98688.06;7007691;28;20202;-86
2023/04/16 03:59:35;;;;;;;17.50;13.70;;;;;;;12.59;64.09;98650.72;7007154;28;20213;-87
2023/04/16 04:02:57;;;;;;;15.10;12.73;;;;;;;12.85;64.72;98717.25;7000081;28;20245;-87
2023/04/16 04:06:19;;;;;;;14.57;12.57;;;;;;;12.56;65.29;98683.59;7006403;28;20288;-87
2023/04/16 04:09:41;;;;;;;15.63;11.73;;;;;;;12.74;65.21;98729.63;7002156;28;20299;-87
2023/04/16 04:13:07;;;;;;;15.97;12.37;;;;;;;12.91;64.63;98725.31;6983853;28;20308;-87
2023/04/16 04:16:29;;;;;;;15.07;12.13;;;;;;;12.50;65.42;98732.31;7000671;28;20230;-86
2023/04/16 04:19:51;;;;;;;17.40;13.33;;;;;;;12.29;65.74;98648.88;6992021;28;20206;-87
2023/04/16 04:23:12;;;;;;;13.57;11.97;;;;;;;12.84;64.61;98693.94;6985854;28;20225;-86
2023/04/16 04:26:35;;;;;;;15.67;13.43;;;;;;;12.78;65.01;98730.00;7006409;28;20198;-85
2023/04/16 04:29:57;;;;;;;15.87;12.70;;;;;;;12.20;66.05;98691.56;7006635;28;20232;-86
2023/04/16 04:33:19;;;;;;;17.73;11.90;;;;;;;12.43;64.74;98694.50;7006552;28;20220;-86
2023/04/16 04:36:41;;;;;;;16.83;13.50;;;;;;;12.69;64.40;98715.13;7008299;28;20213;-85
2023/04/16 04:40:02;;;;;;;15.27;12.63;;;;;;;12.61;65.54;98748.66;7002501;28;20328;-85
2023/04/16 04:43:25;;;;;;;15.73;13.00;;;;;;;12.82;65.04;98734.78;6996256;28;20774;-87
2023/04/16 04:46:47;;;;;;;18.33;13.97;;;;;;;12.85;64.94;98715.38;7008069;28;20255;-86
2023/04/16 04:50:09;;;;;;;15.97;13.77;;;;;;;12.08;66.49;98711.38;7008277;28;20225;-86
2023/04/16 04:53:31;;;;;;;20.67;14.47;;;;;;;12.43;65.04;98669.34;7007364;28;20217;-85
2023/04/16 04:56:53;;;;;;;18.03;13.83;;;;;;;13.08;64.71;98760.78;7007312;28;20217;-85
2023/04/16 05:00:16;;;;;;;19.57;15.23;;;;;;;12.45;65.12;98687.00;6999858;28;20428;-85
2023/04/16 05:03:37;;;;;;;18.33;14.63;;;;;;;12.32;64.93;98675.44;6986547;28;20214;-86
2023/04/16 05:07:00;;;;;;;21.33;15.10;;;;;;;12.83;64.57;98741.84;7001256;28;20661;-87
2023/04/16 05:10:22;;;;;;;19.77;14.77;;;;;;;12.71;64.86;98740.06;7002862;28;20277;-87
2023/04/16 05:13:44;;;;;;;21.07;15.60;;;;;;;12.87;64.00;98712.47;6999196;28;20583;-87
2023/04/16 05:17:09;;;;;;;18.03;13.70;;;;;;;12.46;64.18;98706.78;7007057;28;20651;-87
2023/04/16 05:20:31;;;;;;;20.37;15.87;;;;;;;13.27;63.79;98781.47;7007184;28;20261;-87
2023/04/16 05:23:53;;;;;;;19.33;15.03;;;;;;;13.14;63.68;98784.28;7006709;28;20696;-87
2023/04/16 05:27:15;;;;;;;20.07;14.80;;;;;;;12.95;63.94;98769.88;7006905;28;20211;-87
2023/04/16 05:30:37;;;;;;;17.27;14.93;;;;;;;12.29;64.94;98724.56;7006180;28;20697;-87
2023/04/16 05:34:00;;;;;;;21.47;14.93;;;;;;;12.35;65.13;98737.22;6995174;28;20714;-87
2023/04/16 05:37:21;;;;;;;19.70;14.30;;;;;;;12.24;65.74;98775.75;7006605;28;20221;-86
2023/04/16 05:40:46;;;;;;;22.77;15.63;;;;;;;12.11;66.44;98767.72;7006433;28;20206;-88
2023/04/16 05:44:22;;;;;;;21.00;16.77;;;;;;;12.39;65.39;98739.25;7002302;28;20709;-89
2023/04/16 05:53:17;;;;;;;23.77;16.73;;;;;;;12.99;64.58;98825.19;6975639;28;20239;-90
2023/04/16 05:57:26;;;;;;;23.83;18.40;;;;;;;11.93;65.34;98678.44;7011653;28;20235;-90
2023/04/16 06:05:54;;;;;;;26.07;18.43;;;;;;;12.77;66.15;98833.88;6932979;28;20307;-88
2023/04/16 06:13:42;;;;;;;29.07;19.43;;;;;;;12.91;65.71;98822.75;6971064;22;20244;-76
2023/04/16 06:17:03;;;;;;;25.00;18.83;;;;;;;13.07;64.81;98833.06;7014720;28;20205;-76
2023/04/16 06:20:25;;;;;;;29.27;20.80;;;;;;;13.25;64.69;98832.28;7015863;28;20343;-76
2023/04/16 06:23:46;;;;;;;30.90;21.87;;;;;;;12.80;64.89;98800.97;7018949;28;20370;-76
2023/04/16 06:27:11;;;;;;;29.50;21.00;;;;;;;12.72;65.23;98837.25;7002162;28;20292;-77
2023/04/16 06:30:33;;;;;;;30.97;21.37;;;;;;;13.15;64.59;98829.25;7002547;28;20358;-78
2023/04/16 06:33:55;;;;;;;31.63;21.93;;;;;;;12.77;64.98;98790.59;7018353;28;20206;-80
2023/04/16 06:37:16;;;;;;;32.33;22.33;;;;;;;12.83;65.49;98831.13;7011843;28;20226;-78
2023/04/16 06:40:38;;;;;;;27.13;21.07;;;;;;;12.63;65.62;98853.94;7001660;28;20353;-77
2023/04/16 06:44:01;;;;;;;33.53;23.30;;;;;;;12.67;65.15;98806.47;7026985;28;20284;-78
2023/04/16 06:47:22;;;;;;;31.33;23.13;;;;;;;12.93;65.16;98844.19;7019459;28;20232;-78
2023/04/16 06:50:44;;;;;;;36.83;23.60;;;;;;;13.11;64.46;98847.00;7008579;28;20687;-79
2023/04/16 06:54:05;;;;;;;35.50;23.73;;;;;;;13.09;64.78;98836.38;7015967;28;20212;-77
2023/04/16 06:57:27;;;;;;;33.77;24.13;;;;;;;13.22;64.36;98857.09;7000237;28;20296;-78
2023/04/16 07:00:50;;;;;;;34.70;23.40;;;;;;;12.79;65.41;98858.81;7023028;28;20342;-76
2023/04/16 07:04:12;;;;;;;33.77;23.67;;;;;;;12.95;64.94;98861.00;7024348;28;20685;-77
2023/04/16 07:07:33;;;;;;;31.27;22.30;;;;;;;13.16;63.74;98858.81;7020051;28;20244;-77
2023/04/16 07:10:55;;;;;;;31.30;22.67;;;;;;;12.53;65.80;98861.69;7022872;28;20271;-79
2023/04/16 07:14:17;;;;;;;35.07;22.83;;;;;;;13.21;64.55;98869.81;6997562;28;20210;-80
2023/04/16 07:17:40;;;;;;;33.17;23.03;;;;;;;13.33;64.43;98868.03;7007452;28;20205;-78
2023/04/16 07:21:02;;;;;;;31.57;22.67;;;;;;;13.23;64.61;98864.19;7009594;28;20248;-77
2023/04/16 07:24:23;;;;;;;30.77;22.83;;;;;;;13.23;64.09;98864.19;7014517;28;20288;-77
2023/04/16 07:27:45;;;;;;;34.00;22.47;;;;;;;13.10;64.56;98875.13;7016435;28;20366;-77
2023/04/16 07:31:06;;;;;;;32.73;22.97;;;;;;;13.29;64.20;98874.13;7025539;28;20262;-78
2023/04/16 07:34:29;;;;;;;29.60;21.37;;;;;;;13.10;63.64;98880.53;7005816;28;20314;-78
2023/04/16 07:37:51;;;;;;;35.50;22.30;;;;;;;13.10;64.66;98886.75;7012920;28;20212;-77
2023/04/16 07:41:13;;;;;;;29.57;21.90;;;;;;;13.12;64.56;98881.13;7020631;28;20284;-77
2023/04/16 07:49:00;;;;;;;29.10;20.63;;;;;;;13.36;63.71;98891.97;6997277;28;20193;-77
2023/04/16 07:52:24;;;;;;;27.23;19.43;;;;;;;13.43;62.93;98891.91;6996118;28;20579;-77
2023/04/16 07:55:48;;;;;;;28.33;20.57;;;;;;;13.09;63.87;98876.16;6996957;28;20212;-78
2023/04/16 07:59:10;;;;;;;27.70;21.17;;;;;;;12.99;64.36;98895.56;7014118;28;20280;-80
2023/04/16 08:02:32;;;;;;;26.97;19.70;;;;;;;12.56;65.13;98893.72;7024473;28;20228;-78
2023/04/16 08:05:54;;;;;;;27.37;19.97;;;;;;;13.27;64.32;98909.53;7025258;28;20784;-78
2023/04/16 08:09:17;;;;;;;28.20;19.57;;;;;;;13.52;63.56;98910.38;7030014;28;20267;-77
2023/04/16 08:12:38;;;;;;;30.27;20.67;;;;;;;13.71;62.99;98912.09;7006074;28;20268;-79
2023/04/16 08:16:00;;;;;;;25.53;19.97;;;;;;;13.18;64.24;98912.72;7005438;28;20249;-78
2023/04/16 08:19:22;;;;;;;32.47;22.07;;;;;;;13.29;63.69;98918.25;7002185;28;20240;-79
2023/04/16 08:22:44;;;;;;;29.93;21.10;;;;;;;13.18;63.76;98907.31;7003480;28;20253;-77
2023/04/16 08:26:07;;;;;;;27.30;20.03;;;;;;;13.54;63.39;98927.25;7002171;28;20324;-78
2023/04/16 08:29:29;;;;;;;24.60;19.43;;;;;;;13.49;63.41;98916.25;7002824;28;20227;-77
2023/04/16 08:32:51;;;;;;;27.93;20.50;;;;;;;14.07;62.44;98927.59;7023274;28;20206;-77
2023/04/16 08:36:12;;;;;;;25.67;19.67;;;;;;;13.83;62.56;98898.63;7021570;28;20223;-81
2023/04/16 08:39:34;;;;;;;25.57;18.90;;;;;;;14.22;61.80;98930.81;7012127;28;20256;-77
2023/04/16 08:42:59;;;;;;;29.13;19.43;;;;;;;13.91;61.36;98929.00;7027651;28;20650;-80
2023/04/16 08:46:23;;;;;;;19.70;16.00;;;;;;;13.87;61.38;98867.34;7030390;28;20239;-91
2023/04/16 08:49:45;;;;;;;21.43;16.07;;;;;;;13.63;61.36;98879.84;7030455;28;20227;-88
2023/04/16 08:53:07;;;;;;;22.10;17.20;;;;;;;13.83;61.64;98882.38;7023569;28;20229;-88
2023/04/16 09:00:47;;;;;;;20.27;16.47;;;;;;;14.12;61.75;98931.28;7002542;28;20176;-89
2023/04/16 09:04:09;;;;;;;22.30;15.50;;;;;;;14.49;61.08;98943.84;7001535;28;20395;-81
2023/04/16 09:07:31;;;;;;;20.27;15.67;;;;;;;14.60;60.30;98966.66;7014686;28;20254;-78
2023/04/16 09:10:55;;;;;;;21.57;16.70;;;;;;;14.22;60.73;98960.63;7024266;28;20315;-77
2023/04/16 09:14:20;;;;;;;18.00;14.40;;;;;;;14.00;60.67;98897.84;7012882;28;20214;-79
2023/04/16 09:17:43;;;;;;;21.33;15.67;;;;;;;14.36;60.29;98929.59;7009979;28;20199;-80
2023/04/16 09:21:06;;;;;;;20.57;15.67;;;;;;;14.65;59.85;98928.84;7012512;28;20712;-82
2023/04/16 09:24:28;;;;;;;19.13;15.37;;;;;;;14.74;59.86;98962.75;6999539;28;20213;-80
2023/04/16 09:27:51;;;;;;;17.53;14.40;;;;;;;14.44;59.34;98915.72;7003308;28;20251;-82
2023/04/16 09:31:14;;;;;;;16.10;13.80;;;;;;;14.67;59.20;98951.13;7024083;28;20226;-81
2023/04/16 09:34:55;;;;;;;18.97;14.67;;;;;;;14.45;59.32;98958.09;7026880;28;20223;-82
2023/04/16 09:38:17;;;;;;;20.60;15.13;;;;;;;14.55;59.86;98982.78;7027444;28;20211;-79
2023/04/16 09:41:40;;;;;;;25.37;14.53;;;;;;;14.19;60.14;98940.22;7027765;28;20218;-78
2023/04/16 09:45:02;;;;;;;26.57;22.00;;;;;;;13.89;61.02;98909.44;7018051;28;20211;-78
2023/04/16 09:48:33;;;;;;;111.60;74.30;;;;;;;13.76;60.78;98892.47;7027438;28;20216;-82
2023/04/16 09:51:58;;;;;;;18.00;14.30;;;;;;;13.82;60.55;98953.91;7027086;28;20244;-76
2023/04/16 09:55:23;;;;;;;20.40;14.77;;;;;;;13.89;61.23;98965.50;7027295;28;20331;-77
2023/04/16 09:58:47;;;;;;;21.23;16.20;;;;;;;12.76;63.27;98899.84;7027176;28;20210;-81
2023/04/16 10:02:09;;;;;;;17.23;14.73;;;;;;;13.39;62.21;98909.69;7027085;28;20205;-79
2023/04/16 10:05:31;;;;;;;19.53;14.97;;;;;;;13.94;61.59;98925.00;6998454;28;20198;-75
2023/04/16 10:08:56;;;;;;;19.23;14.97;;;;;;;14.14;60.21;98972.56;6998963;28;20238;-76
2023/04/16 10:12:17;;;;;;;21.03;16.47;;;;;;;13.64;62.08;98965.50;7003935;28;20221;-79
2023/04/16 10:15:40;;;;;;;24.30;16.67;;;;;;;13.26;62.70;98931.41;7021679;28;20207;-80
2023/04/16 10:19:02;;;;;;;19.90;15.67;;;;;;;13.39;62.58;98918.63;7016120;28;20211;-80
2023/04/16 10:22:26;;;;;;;21.97;16.23;;;;;;;13.82;62.22;99006.22;7026880;28;20216;-81
2023/04/16 10:25:50;;;;;;;18.77;15.07;;;;;;;13.98;61.97;99015.69;7026729;28;20201;-80
2023/04/16 10:29:12;;;;;;;21.43;16.47;;;;;;;13.03;62.33;98910.34;7004352;28;20550;-82
2023/04/16 10:32:34;;;;;;;22.80;15.80;;;;;;;13.38;62.20;98959.44;7020375;28;20222;-90
2023/04/16 10:36:21;;;;;;;18.53;14.87;;;;;;;13.37;62.95;99022.78;7013434;28;20305;-87
2023/04/16 10:39:47;;;;;;;21.17;16.57;;;;;;;13.35;62.65;98952.63;7022858;28;20213;-86
2023/04/16 10:43:18;;;;;;;28.70;18.90;;;;;;;13.63;63.12;99025.34;7022724;28;20248;-87
2023/04/16 10:46:41;;;;;;;23.17;16.17;;;;;;;13.54;63.07;99021.22;7026519;28;20594;-86
2023/04/16 10:50:15;;;;;;;25.10;16.80;;;;;;;13.75;62.96;99020.88;7023367;28;20222;-86
2023/04/16 10:53:43;;;;;;;23.57;17.50;;;;;;;13.56;63.43;98998.28;7020186;28;20235;-87
2023/04/16 11:00:55;;;;;;;23.70;16.90;;;;;;;13.54;63.63;99003.09;7013524;28;20217;-84
2023/04/16 11:04:27;;;;;;;22.90;15.77;;;;;;;13.14;64.45;98968.34;7011251;28;20193;-84
2023/04/16 11:08:00;;;;;;;21.63;15.27;;;;;;;13.22;63.98;98978.94;7007635;28;20239;-84
2023/04/16 11:11:28;;;;;;;21.27;15.33;;;;;;;14.02;62.72;99036.72;7011323;28;20586;-88
2023/04/16 11:14:51;;;;;;;18.87;14.13;;;;;;;13.40;63.50;98987.16;7011946;28;20244;-88
2023/04/16 11:18:19;;;;;;;22.53;15.77;;;;;;;13.42;63.28;98966.09;7016416;28;20544;-90
2023/04/16 11:21:42;;;;;;;19.47;14.77;;;;;;;13.42;63.16;98950.69;7023086;28;20217;-95
2023/04/16 11:25:05;;;;;;;20.03;13.27;;;;;;;13.48;63.38;98992.31;7013555;28;20258;-90
2023/04/16 11:28:33;;;;;;;19.70;14.40;;;;;;;13.54;62.91;98951.63;7021741;28;20739;-91
2023/04/16 11:31:55;;;;;;;20.33;14.03;;;;;;;13.91;62.62;98991.34;7027562;28;20338;-88
2023/04/16 11:35:19;;;;;;;19.47;13.37;;;;;;;14.21;62.19;99032.22;7002973;28;20207;-80
2023/04/16 11:38:41;;;;;;;20.77;14.63;;;;;;;13.80;63.27;99037.31;7015577;28;20239;-78
2023/04/16 11:42:03;;;;;;;20.87;14.63;;;;;;;13.47;63.59;98996.06;7016113;28;20205;-79
2023/04/16 11:45:27;;;;;;;18.17;12.50;;;;;;;13.15;62.94;98921.31;7048341;28;20205;-79
2023/04/16 11:48:50;;;;;;;18.73;12.90;;;;;;;13.60;63.35;99001.38;7013175;28;20912;-79
2023/04/16 11:52:13;;;;;;;14.77;11.40;;;;;;;13.58;63.01;98960.16;7002849;28;20752;-79
2023/04/16 11:55:43;;;;;;;16.23;12.07;;;;;;;13.68;63.07;98971.34;7018615;28;20201;-79
2023/04/16 11:59:08;;;;;;;15.50;10.73;;;;;;;13.08;63.50;98953.81;7031286;28;20223;-79
2023/04/16 12:02:38;;;;;;;13.63;9.73;;;;;;;13.26;64.15;98969.31;7005616;28;20304;-79
2023/04/16 12:06:08;;;;;;;12.80;9.77;;;;;;;13.78;63.91;99053.78;7015838;28;20218;-79
2023/04/16 12:09:31;;;;;;;12.43;9.47;;;;;;;13.64;63.08;98965.50;7002271;28;20193;-79
2023/04/16 12:12:52;;;;;;;13.73;10.03;;;;;;;13.84;63.82;99036.66;7002243;28;20273;-79
2023/04/16 12:16:20;;;;;;;11.67;8.87;;;;;;;13.22;64.20;98955.38;7002413;28;20260;-79
2023/04/16 12:19:48;;;;;;;11.50;8.10;;;;;;;13.86;63.16;99042.66;7005332;28;20211;-77
2023/04/16 12:23:22;;;;;;;10.40;8.40;;;;;;;13.87;63.80;99044.31;7003461;28;20217;-79
2023/04/16 12:26:47;;;;;;;10.63;8.43;;;;;;;13.69;63.74;99055.09;7001780;28;20272;-79
2023/04/16 12:30:10;;;;;;;12.33;9.27;;;;;;;13.61;64.11;99049.09;7026813;28;20206;-80
2023/04/16 12:33:31;;;;;;;11.27;9.23;;;;;;;13.23;62.89;98910.22;7029133;28;20277;-79
2023/04/16 12:37:08;;;;;;;10.93;8.53;;;;;;;12.84;63.80;98946.44;7025418;28;20204;-79
2023/04/16 12:40:29;;;;;;;12.43;9.47;;;;;;;12.85;64.03;98914.78;7003499;28;20194;-78
2023/04/16 12:43:53;;;;;;;11.47;9.00;;;;;;;13.58;64.64;99054.97;7017867;28;20205;-79
2023/04/16 12:47:14;;;;;;;10.40;8.40;;;;;;;13.74;63.85;99049.84;7025391;28;20226;-79
2023/04/16 12:50:38;;;;;;;10.13;8.27;;;;;;;13.42;63.85;98966.94;7001316;28;20583;-79
2023/04/16 12:54:00;;;;;;;12.60;10.37;;;;;;;13.47;63.52;99004.19;7000995;28;20215;-78
2023/04/16 12:57:27;;;;;;;10.27;8.10;;;;;;;13.55;63.32;98958.72;7028387;28;20210;-79
2023/04/16 13:00:51;;;;;;;10.90;7.30;;;;;;;13.53;63.58;99030.41;7025236;28;20246;-79
2023/04/16 13:04:12;;;;;;;9.47;7.73;;;;;;;13.51;63.61;98968.31;7006591;28;20206;-80
2023/04/16 13:07:34;;;;;;;9.93;8.07;;;;;;;13.88;62.49;98959.28;7001391;28;20232;-79
2023/04/16 13:10:56;;;;;;;8.50;7.70;;;;;;;13.66;63.88;99005.94;7018022;28;20227;-79
2023/04/16 13:14:18;;;;;;;9.43;8.40;;;;;;;13.67;62.99;98975.91;7028660;28;20225;-78
2023/04/16 13:17:40;;;;;;;9.10;7.83;;;;;;;13.87;63.75;99051.66;7028409;28;20304;-78
2023/04/16 13:21:02;;;;;;;9.27;7.47;;;;;;;13.30;64.31;98978.69;7028425;28;20206;-79
2023/04/16 13:24:26;;;;;;;8.97;8.03;;;;;;;13.65;63.33;98975.31;7007727;28;20227;-79
2023/04/16 13:27:47;;;;;;;10.70;8.20;;;;;;;12.97;63.31;98865.19;7009148;28;20197;-79
2023/04/16 13:31:14;;;;;;;14.17;11.17;;;;;;;14.21;63.05;99048.47;7023247;28;20224;-78
2023/04/16 13:34:38;;;;;;;9.63;8.63;;;;;;;13.75;63.61;99005.44;6999031;28;20209;-79
2023/04/16 13:38:00;;;;;;;9.27;8.07;;;;;;;13.64;64.36;99048.69;7017329;28;20214;-79
2023/04/16 13:41:21;;;;;;;8.40;7.57;;;;;;;13.54;62.96;98957.06;7000016;28;20205;-78
2023/04/16 13:44:45;;;;;;;10.80;8.80;;;;;;;13.33;64.11;98972.84;7010935;28;20257;-79
2023/04/16 13:48:10;;;;;;;10.07;8.30;;;;;;;13.72;63.40;99010.47;6999837;28;20210;-79
2023/04/16 13:51:34;;;;;;;10.60;8.53;;;;;;;13.39;63.38;98958.41;6999754;28;20229;-79
2023/04/16 13:54:56;;;;;;;11.03;8.40;;;;;;;13.41;63.68;99035.69;7010421;28;20244;-78
2023/04/16 13:58:22;;;;;;;9.03;8.07;;;;;;;14.18;63.42;99049.72;7023548;28;20219;-79
2023/04/16 14:01:43;;;;;;;11.33;8.33;;;;;;;13.71;62.94;98973.59;7017605;28;20336;-79
2023/04/16 14:05:06;;;;;;;10.87;9.70;;;;;;;13.39;64.13;98990.94;7013488;28;20214;-79
2023/04/16 14:08:29;;;;;;;11.47;9.57;;;;;;;13.95;64.15;99054.06;7007730;28;20724;-79
2023/04/16 14:11:51;;;;;;;16.97;12.03;;;;;;;14.15;63.65;99055.56;7003442;28;20221;-79
2023/04/16 14:15:14;;;;;;;15.37;11.33;;;;;;;14.05;62.82;98990.16;7002823;28;20248;-80
2023/04/16 14:18:39;;;;;;;11.67;10.13;;;;;;;14.23;62.59;99035.50;7021880;28;20208;-79
2023/04/16 14:22:01;;;;;;;12.37;10.10;;;;;;;13.87;62.75;98992.81;7025213;28;20277;-78
2023/04/16 14:25:25;;;;;;;13.20;10.93;;;;;;;13.70;62.49;98970.03;7015356;28;20228;-78
2023/04/16 14:28:47;;;;;;;15.33;11.70;;;;;;;14.21;63.02;99054.72;7023655;28;20627;-80
2023/04/16 14:32:09;;;;;;;13.57;10.70;;;;;;;14.34;62.58;99056.50;6998992;28;20797;-79
2023/04/16 14:35:31;;;;;;;17.90;13.10;;;;;;;13.50;63.34;98947.69;6998761;28;20238;-78
2023/04/16 14:38:53;;;;;;;16.07;12.70;;;;;;;13.76;63.22;98966.44;6999050;28;20234;-79
2023/04/16 14:42:16;;;;;;;17.07;14.60;;;;;;;13.90;63.05;98950.91;7013463;28;20198;-81
2023/04/16 14:45:37;;;;;;;14.83;11.60;;;;;;;13.90;62.95;98980.72;6998306;28;20251;-79
2023/04/16 14:49:00;;;;;;;16.33;12.30;;;;;;;13.93;62.89;98981.09;6999233;28;20238;-79
2023/04/16 14:52:21;;;;;;;15.20;11.87;;;;;;;14.40;62.81;99045.56;6996231;28;20252;-78
2023/04/16 14:55:43;;;;;;;16.77;13.43;;;;;;;14.45;63.11;99051.16;6996256;28;20210;-78
2023/04/16 14:59:06;;;;;;;16.17;13.23;;;;;;;13.95;63.01;98989.00;6996604;28;20203;-79
2023/04/16 15:02:28;;;;;;;18.13;14.47;;;;;;;14.44;63.30;99062.22;6996405;28;20208;-79
2023/04/16 15:05:54;;;;;;;16.77;13.80;;;;;;;14.23;62.63;98978.56;7007069;28;20688;-80
2023/04/16 15:09:15;;;;;;;17.80;13.73;;;;;;;14.41;63.18;99049.97;7025548;28;20205;-79
2023/04/16 15:12:37;;;;;;;17.70;13.37;;;;;;;13.80;63.69;98974.97;7023895;28;20717;-80
2023/04/16 15:16:00;;;;;;;18.87;13.83;;;;;;;13.66;63.98;98976.13;7023971;28;20222;-79
2023/04/16 15:19:22;;;;;;;19.60;14.77;;;;;;;14.02;64.28;99044.84;7018554;28;20682;-79
2023/04/16 15:22:44;;;;;;;16.33;13.43;;;;;;;13.27;64.15;98892.47;6996736;28;20774;-79
2023/04/16 15:26:05;;;;;;;18.47;13.97;;;;;;;14.18;64.80;99051.59;6996700;28;20207;-79
2023/04/16 15:29:27;;;;;;;18.50;15.57;;;;;;;14.38;63.74;99038.69;6996565;28;20217;-79
2023/04/16 15:32:50;;;;;;;21.20;14.60;;;;;;;14.22;64.18;99056.38;6996475;28;20260;-79
2023/04/16 15:36:12;;;;;;;21.27;15.43;;;;;;;14.23;64.04;99044.47;7019819;28;20228;-79
2023/04/16 15:39:33;;;;;;;20.93;16.00;;;;;;;13.75;63.50;98945.00;7024056;28;20199;-79
2023/04/16 15:42:56;;;;;;;24.87;17.70;;;;;;;13.94;63.15;98976.50;7024694;28;20221;-82
2023/04/16 15:46:18;;;;;;;22.83;17.30;;;;;;;14.48;63.48;99058.84;7002330;28;20279;-78
2023/04/16 15:49:41;;;;;;;27.97;19.00;;;;;;;14.34;63.80;99070.88;7019929;28;20205;-80
2023/04/16 15:53:03;;;;;;;21.00;16.63;;;;;;;13.72;65.27;99057.38;7025610;28;20230;-80
2023/04/16 15:56:31;;;;;;;26.43;18.50;;;;;;;13.83;65.07;99023.31;7025282;28;20222;-79
2023/04/16 15:59:54;;;;;;;25.20;19.30;;;;;;;14.03;65.17;99054.63;7024471;28;20208;-79
2023/04/16 16:03:16;;;;;;;26.20;18.90;;;;;;;14.47;64.60;99070.75;7025612;28;20208;-80